createdAt,value
2023-07-17T00:00:49.716Z,5.68
2023-07-17T00:05:52.820Z,9.93
2023-07-17T00:10:58.209Z,10.05
2023-07-17T00:16:00.938Z,8.02
2023-07-17T00:21:03.809Z,17.35
2023-07-17T00:26:06.460Z,10.70
2023-07-17T00:31:09.034Z,18.52
2023-07-17T00:36:11.565Z,15.48
2023-07-17T00:41:14.038Z,17.05
2023-07-17T00:46:19.687Z,19.35
2023-07-17T00:51:22.261Z,11.85
2023-07-17T00:56:26.719Z,10.55
2023-07-17T01:01:29.540Z,11.13
2023-07-17T01:06:32.409Z,13.35
2023-07-17T01:11:35.717Z,11.70
2023-07-17T01:16:38.422Z,12.13
2023-07-17T01:21:52.403Z,14.05
2023-07-17T01:26:55.499Z,14.45
2023-07-17T01:31:58.475Z,17.13
2023-07-17T01:37:01.206Z,13.95
2023-07-17T01:42:04.362Z,14.48
2023-07-17T01:47:07.194Z,11.02
2023-07-17T01:52:11.547Z,10.18
2023-07-17T02:02:16.828Z,11.00
2023-07-17T02:07:19.407Z,10.07
2023-07-17T02:12:21.941Z,9.32
2023-07-17T02:17:24.554Z,11.48
2023-07-17T02:22:29.112Z,11.38
2023-07-17T02:27:33.332Z,9.25
2023-07-17T02:32:35.944Z,9.40
2023-07-17T02:37:38.624Z,14.40
2023-07-17T02:42:41.164Z,10.57
2023-07-17T02:47:43.732Z,10.18
2023-07-17T02:52:46.654Z,10.30
2023-07-17T02:57:49.604Z,8.27
2023-07-17T03:02:52.617Z,13.52
2023-07-17T03:07:56.919Z,8.30
2023-07-17T03:12:59.455Z,10.67
2023-07-17T03:18:04.244Z,9.95
2023-07-17T03:28:10.079Z,11.23
2023-07-17T03:33:12.726Z,13.25
2023-07-17T03:38:15.512Z,11.07
2023-07-17T03:43:18.202Z,15.73
2023-07-17T03:48:22.118Z,11.00
2023-07-17T03:53:25.464Z,10.40
2023-07-17T03:58:29.642Z,17.58
2023-07-17T04:03:33.036Z,12.80
2023-07-17T04:08:36.296Z,10.95
2023-07-17T04:13:40.061Z,16.95
2023-07-17T04:18:43.959Z,18.75
2023-07-17T04:23:50.281Z,8.95
2023-07-17T04:28:55.000Z,12.30
2023-07-17T04:33:58.206Z,12.45
2023-07-17T04:39:05.723Z,13.85
2023-07-17T04:44:09.467Z,19.52
2023-07-17T04:49:12.147Z,17.35
2023-07-17T04:54:15.044Z,17.17
2023-07-17T04:59:18.057Z,13.20
2023-07-17T05:04:20.828Z,29.55
2023-07-17T05:09:23.946Z,19.88
2023-07-17T05:14:27.680Z,11.20
2023-07-17T05:19:33.069Z,14.20
2023-07-17T05:24:36.554Z,17.00
2023-07-17T05:29:39.258Z,15.90
2023-07-17T05:34:42.007Z,16.20
2023-07-17T05:39:45.550Z,21.38
2023-07-17T05:44:49.585Z,18.55
2023-07-17T05:49:52.290Z,20.25
2023-07-17T05:54:56.308Z,25.73
2023-07-17T05:59:59.526Z,17.30
2023-07-17T06:05:02.153Z,19.77
2023-07-17T06:10:05.467Z,17.63
2023-07-17T06:15:08.650Z,26.50
2023-07-17T06:20:11.476Z,17.80
2023-07-17T06:25:14.504Z,23.17
2023-07-17T06:30:17.141Z,19.85
2023-07-17T06:35:19.943Z,20.30
2023-07-17T06:40:22.662Z,32.75
2023-07-17T06:45:25.282Z,24.25
2023-07-17T06:50:28.054Z,27.10
2023-07-17T06:55:30.977Z,26.83
2023-07-17T07:00:33.541Z,22.88
2023-07-17T07:05:36.079Z,25.98
2023-07-17T07:10:38.787Z,23.15
2023-07-17T07:15:41.675Z,28.20
2023-07-17T07:20:45.734Z,28.90
2023-07-17T07:25:48.562Z,28.27
2023-07-17T07:30:58.908Z,20.00
2023-07-17T07:36:01.885Z,24.85
2023-07-17T07:41:04.545Z,20.05
2023-07-17T07:46:07.224Z,22.23
2023-07-17T07:51:09.821Z,19.52
2023-07-17T07:56:12.517Z,24.85
2023-07-17T08:01:15.075Z,14.70
2023-07-17T08:06:17.769Z,18.95
2023-07-17T08:11:23.330Z,16.83
2023-07-17T08:16:25.937Z,22.98
2023-07-17T08:21:28.537Z,20.65
2023-07-17T08:26:31.245Z,22.50
2023-07-17T08:31:35.347Z,18.33
2023-07-17T08:36:38.033Z,17.48
2023-07-17T08:41:42.748Z,25.05
2023-07-17T08:46:47.953Z,14.95
2023-07-17T08:51:51.022Z,14.68
2023-07-17T08:56:53.829Z,15.90
2023-07-17T09:01:56.931Z,14.77
2023-07-17T09:06:59.505Z,18.00
2023-07-17T09:12:09.711Z,12.23
2023-07-17T09:17:12.295Z,17.83
2023-07-17T09:22:16.363Z,13.63
2023-07-17T09:27:18.941Z,11.25
2023-07-17T09:32:23.307Z,12.97
2023-07-17T09:37:31.861Z,11.68
2023-07-17T09:42:35.292Z,14.98
2023-07-17T09:47:38.596Z,14.13
2023-07-17T09:52:43.270Z,17.98
2023-07-17T09:57:47.830Z,10.00
2023-07-17T10:03:02.571Z,12.07
2023-07-17T10:08:07.590Z,15.55
2023-07-17T10:13:11.038Z,12.95
2023-07-17T10:18:14.191Z,10.70
2023-07-17T10:23:25.381Z,15.82
2023-07-17T10:28:32.810Z,12.52
2023-07-17T10:33:39.245Z,17.52
2023-07-17T10:38:43.476Z,8.95
2023-07-17T10:44:17.358Z,10.65
2023-07-17T10:49:21.550Z,10.48
2023-07-17T10:54:25.362Z,12.70
2023-07-17T10:59:27.935Z,11.20
2023-07-17T11:04:30.661Z,15.82
2023-07-17T11:09:33.205Z,13.13
2023-07-17T11:14:36.610Z,14.48
2023-07-17T11:24:41.579Z,13.25
2023-07-17T11:29:47.310Z,14.70
2023-07-17T11:34:55.519Z,11.60
2023-07-17T11:39:58.049Z,11.23
2023-07-17T11:45:01.179Z,6.60
2023-07-17T11:50:04.158Z,5.95
2023-07-17T11:55:07.228Z,7.07
2023-07-17T12:00:11.326Z,4.63
2023-07-17T12:05:17.157Z,9.93
2023-07-17T12:10:20.051Z,14.93
2023-07-17T12:15:23.786Z,10.53
2023-07-17T12:20:27.011Z,7.68
2023-07-17T12:25:30.828Z,10.60
2023-07-17T12:30:33.361Z,8.30
2023-07-17T12:35:37.188Z,8.50
2023-07-17T12:40:39.808Z,9.82
2023-07-17T12:45:42.609Z,7.88
2023-07-17T12:50:45.171Z,9.83
2023-07-17T12:55:48.893Z,12.95
2023-07-17T13:00:56.306Z,14.00
2023-07-17T13:05:58.864Z,9.98
2023-07-17T13:11:01.486Z,12.07
2023-07-17T13:16:04.209Z,9.27
2023-07-17T13:21:06.854Z,7.90
2023-07-17T13:26:09.517Z,9.77
2023-07-17T13:31:12.366Z,8.60
2023-07-17T13:36:15.012Z,10.13
2023-07-17T13:41:43.558Z,14.27
2023-07-17T13:46:48.775Z,10.70
2023-07-17T13:51:51.415Z,12.13
2023-07-17T14:01:59.466Z,13.27
2023-07-17T14:07:02.036Z,13.98
2023-07-17T14:12:04.980Z,13.27
2023-07-17T14:17:07.589Z,18.08
2023-07-17T14:22:10.279Z,16.17
2023-07-17T14:27:12.847Z,16.05
2023-07-17T14:32:15.365Z,16.25
2023-07-17T14:37:17.904Z,16.27
2023-07-17T14:42:20.437Z,17.75
2023-07-17T14:47:23.193Z,16.40
2023-07-17T14:52:26.536Z,16.38
2023-07-17T14:57:29.110Z,20.27
2023-07-17T15:02:31.645Z,18.48
2023-07-17T15:07:34.364Z,13.57
2023-07-17T15:12:36.849Z,8.32
2023-07-17T15:17:39.481Z,10.48
2023-07-17T15:22:44.281Z,15.27
2023-07-17T15:27:47.014Z,14.18
2023-07-17T15:32:49.515Z,9.85
2023-07-17T15:37:52.134Z,13.07
2023-07-17T15:42:54.612Z,14.38
2023-07-17T15:47:57.564Z,11.30
2023-07-17T15:53:00.154Z,16.57
2023-07-17T15:58:03.396Z,12.43
2023-07-17T16:03:06.059Z,11.95
2023-07-17T16:08:08.794Z,11.25
2023-07-17T16:13:11.349Z,10.70
2023-07-17T16:18:14.457Z,9.88
2023-07-17T16:23:17.261Z,12.40
2023-07-17T16:28:19.967Z,10.73
2023-07-17T16:33:22.603Z,11.15
2023-07-17T16:38:25.422Z,12.73
2023-07-17T16:43:28.026Z,12.95
2023-07-17T16:48:30.665Z,10.55
2023-07-17T16:53:33.535Z,10.38
2023-07-17T16:58:37.326Z,8.80
2023-07-17T17:03:40.170Z,13.98
2023-07-17T17:08:43.137Z,9.73
2023-07-17T17:13:45.890Z,9.38
2023-07-17T17:18:48.421Z,10.32
2023-07-17T17:23:51.015Z,6.38
2023-07-17T17:28:53.706Z,11.60
2023-07-17T17:33:56.194Z,10.52
2023-07-17T17:38:59.918Z,5.72
2023-07-17T17:44:02.530Z,6.68
2023-07-17T17:49:05.177Z,12.32
2023-07-17T17:54:07.957Z,6.72
2023-07-17T17:59:10.676Z,12.15
2023-07-17T18:04:13.349Z,6.78
2023-07-17T18:09:15.987Z,5.43
2023-07-17T18:14:18.639Z,5.90
2023-07-17T18:19:36.550Z,6.70
2023-07-17T18:24:39.251Z,5.90
2023-07-17T18:29:42.066Z,7.25
2023-07-17T18:34:44.713Z,8.52
2023-07-17T18:39:47.515Z,5.10
2023-07-17T18:44:50.175Z,6.40
2023-07-17T18:49:52.921Z,6.53
2023-07-17T18:54:55.766Z,6.43
2023-07-17T18:59:58.569Z,8.23
2023-07-17T19:05:01.196Z,8.15
2023-07-17T19:10:04.264Z,8.43
2023-07-17T19:15:09.422Z,6.10
2023-07-17T19:20:12.192Z,13.20
2023-07-17T19:25:14.817Z,10.27
2023-07-17T19:30:17.611Z,11.63
2023-07-17T19:35:21.874Z,17.13
2023-07-17T19:45:28.009Z,6.97
2023-07-17T19:50:30.890Z,14.73
2023-07-17T19:55:33.434Z,8.68
2023-07-17T20:00:37.150Z,7.13
2023-07-17T20:05:39.803Z,7.80
2023-07-17T20:10:42.520Z,7.35
2023-07-17T20:15:45.281Z,9.15
2023-07-17T20:20:48.053Z,7.82
2023-07-17T20:25:50.629Z,6.53
2023-07-17T20:30:53.305Z,7.25
2023-07-17T20:35:56.955Z,8.10
2023-07-17T20:40:59.686Z,6.90
2023-07-17T20:46:02.766Z,9.35
2023-07-17T20:51:06.890Z,9.07
2023-07-17T20:56:10.121Z,16.48
2023-07-17T21:01:27.115Z,9.13
2023-07-17T21:06:29.913Z,10.82
2023-07-17T21:11:32.489Z,11.13
2023-07-17T21:16:35.180Z,11.65
2023-07-17T21:21:38.116Z,8.63
2023-07-17T21:26:40.654Z,16.02
2023-07-17T21:31:43.268Z,7.15
2023-07-17T21:36:45.870Z,11.45
2023-07-17T21:41:48.523Z,11.60
2023-07-17T21:46:51.116Z,11.45
2023-07-17T21:51:53.725Z,9.95
2023-07-17T21:56:56.223Z,9.93
2023-07-17T22:01:58.746Z,14.48
2023-07-17T22:07:01.436Z,15.13
2023-07-17T22:12:06.001Z,10.13
2023-07-17T22:17:08.582Z,14.45
2023-07-17T22:22:11.138Z,9.32
2023-07-17T22:27:13.608Z,11.80
2023-07-17T22:32:17.360Z,9.73
2023-07-17T22:37:21.969Z,7.90
2023-07-17T22:42:24.592Z,8.70
2023-07-17T22:47:28.203Z,15.38
2023-07-17T22:52:30.867Z,8.87
2023-07-17T22:57:33.659Z,5.78
2023-07-17T23:02:36.232Z,6.90
2023-07-17T23:07:38.825Z,8.15
2023-07-17T23:12:41.912Z,7.88
2023-07-17T23:17:48.507Z,10.98
2023-07-17T23:22:51.302Z,7.93
2023-07-17T23:27:53.821Z,14.88
2023-07-17T23:32:56.409Z,8.85
2023-07-17T23:38:00.780Z,7.35
2023-07-17T23:43:03.981Z,16.73
2023-07-17T23:48:07.128Z,10.02
2023-07-17T23:53:09.789Z,12.50
2023-07-17T23:58:13.069Z,6.00
